Saturday, February 24, 2018, 8:15 AM GMT
Back to Local

CYGK, Kingston, Ont.

Location: , , Canada Lat: 44.217
Local Time: 8:15 AM GMT ( 8:15 GMT) Lon: -76.6
Time Zone: GMT Elev: 305 ft

Show me the last for .
Show Decoded

2018-02-24 04:00 METAR CYGK 240400Z 23006KT 5SM BR BKN006 BKN011 OVC022 03/03 A3006 RMK SF5SC2SC1
                 LAST STFD OBS/NEXT 241100 UTC SLP186 =
2018-02-24 03:24 METAR CYGK 240324Z 25004KT 3SM BR FEW003 BKN008 OVC027 04/03 A3005 RMK
                 FG1SF1SF4SC2 CIG RAG SLP182 =
2018-02-24 03:05 METAR CYGK 240305Z 25005KT 1SM BR BKN003 BKN007 OVC023 03/03 A3005 RMK
                 FG2SF3ST2SC1 PRESRR SLP182 =
2018-02-24 03:00 METAR CYGK 240300Z 25006KT 1/2SM FG VV002 03/03 A3004 RMK FG8 CIG RAG SLP180 =
2018-02-24 02:00 METAR CYGK 240200Z 22007KT 1/4SM FG VV001 03/03 A3002 RMK FG8 SLP171 =
2018-02-24 01:48 METAR CYGK 240148Z 22009KT 1/2SM FG VV001 03/03 A3002 RMK FG8 SLP172 =
2018-02-24 01:31 METAR CYGK 240131Z 22009KT 200V270 2 1/2SM -DZ BR OVC002 03/03 A3002 RMK SF8
                 WSHFT 0120 SLP173 =
2018-02-24 01:00 METAR CYGK 240100Z 20012G18KT 2SM -DZ BR BKN002 OVC007 03/03 A3000 RMK SF6ST2
                 CIG RAG SLP166 =
2018-02-24 00:42 METAR CYGK 240042Z 20014KT 1 1/2SM -DZ BR BKN002 OVC008 03/02 A3001 RMK SF6ST2
                 SLP169 =
2018-02-24 00:27 METAR CYGK 240027Z 19010KT 1SM -DZ BR BKN002 OVC006 02/02 A3001 RMK SF6ST2
                 SLP170 =
2018-02-24 00:00 METAR CYGK 240000Z 18006KT 3/4SM -DZ BR BKN002 OVC005 02/01 A3002 RMK SF6ST2
                 SLP172 =
2018-02-23 23:33 METAR CYGK 232333Z 18009KT 1 1/2SM -RA BR BKN002 OVC005 01/01 A3002 RMK SF6ST2
                 SLP171 =
2018-02-23 23:00 METAR CYGK 232300Z 17013KT 5SM -DZ BR BKN002 OVC013 01/01 A3001 RMK SF6ST2
                 SLP169 =
2018-02-23 22:27 METAR CYGK 232227Z 17012G17KT 2SM -RA BR BKN002 OVC006 01/01 A3003 RMK SF6ST2
                 SLP176 =
2018-02-23 22:00 METAR CYGK 232200Z 17014KT 1 1/2SM -RA BR OVC002 01/01 A3005 RMK SF8 SLP183 =
2018-02-23 21:48 METAR CYGK 232148Z 18012KT 2SM -RA BR OVC003 01/01 A3006 RMK SF8 SLP186 =
2018-02-23 21:28 METAR CYGK 232128Z 18010KT 5SM -DZ BR OVC003 01/01 A3007 RMK SF8 SLP190 =
2018-02-23 21:12 METAR CYGK 232112Z 18010KT 1 1/2SM -RA BR OVC003 01/01 A3007 RMK SF8 SLP190 =
2018-02-23 21:00 METAR CYGK 232100Z 18011G16KT 3SM -RA BR OVC003 01/01 A3007 RMK SF8 CIG RAG
                 SLP190 =
2018-02-23 20:35 METAR CYGK 232035Z 17013KT 3SM -RA BR OVC004 01/01 A3008 RMK SF8 SLP193 =
2018-02-23 20:00 METAR CYGK 232000Z 17014G20KT 6SM -RA BR BKN005 OVC009 01/00 A3009 RMK SF6ST2
                 SLP196 =
2018-02-23 19:50 METAR CYGK 231950Z 17016G23KT 6SM -DZ BR BKN005 OVC009 01/00 A3009 RMK SF5ST3
                 PRESFR SLP197 =
2018-02-23 19:20 METAR CYGK 231920Z 17019G26KT 6SM -DZ BR FEW005 OVC009 01/00 A3012 RMK SF2ST6
                 SLP206 =
2018-02-23 19:00 METAR CYGK 231900Z 16019G24KT 12SM -RA OVC013 01/M00 A3013 RMK SC8 SLP211 =
2018-02-23 18:00 METAR CYGK 231800Z 16018KT 15SM -RA FEW015 OVC020 01/M01 A3018 RMK SF1ST8 SF TR
                 PRESFR SLP228 =
2018-02-23 17:00 METAR CYGK 231700Z 15010KT 15SM OVC016 01/M02 A3025 RMK ST8 PRESFR SLP250 =
2018-02-23 16:00 METAR CYGK 231600Z 09009G15KT 15SM BKN018 OVC040 M01/M03 A3030 RMK ST7SC1 PRESFR
                 SLP269 =
2018-02-23 15:41 METAR CYGK 231541Z 11009KT 8SM -FZDZ BKN018 OVC040 M00/M03 A3033 RMK ST5SC3
                 SLP276 =
2018-02-23 15:00 METAR CYGK 231500Z 06008KT 15SM SCT030 OVC080 M02/M05 A3038 RMK SC4AC4 SLP295 =
2018-02-23 14:00 METAR CYGK 231400Z 06006KT 15SM BKN083 OVC250 M03/M06 A3044 RMK AC7CI1 SLP313 =
2018-02-23 13:00 METAR CYGK 231300Z 06007KT 15SM BKN090 OVC250 M04/M07 A3048 RMK AC6CI2 SLP329 =
2018-02-23 12:00 METAR CYGK 231200Z 06007KT 15SM SCT100 OVC250 M05/M08 A3051 RMK AC4CI4 SLP338 =
2018-02-23 11:00 METAR CYGK 231100Z 05005KT 15SM FEW015 SCT110 BKN240 M05/M08 A3053 RMK SC1AC4CI2
                 SC TR SLP346 =

Support USWX by starting your Amazon purchase here.